createdAt,value
2019-05-17T00:00:18.928Z,20.57
2019-05-17T00:02:47.505Z,20.73
2019-05-17T00:05:17.703Z,19.85
2019-05-17T00:07:47.490Z,21.07
2019-05-17T00:10:17.259Z,21.25
2019-05-17T00:12:47.156Z,20.40
2019-05-17T00:15:17.048Z,21.95
2019-05-17T00:17:46.913Z,21.33
2019-05-17T00:20:17.689Z,22.65
2019-05-17T00:22:47.155Z,23.50
2019-05-17T00:25:16.934Z,22.23
2019-05-17T00:27:47.411Z,23.43
2019-05-17T00:30:17.498Z,24.00
2019-05-17T00:32:47.533Z,23.37
2019-05-17T00:35:17.822Z,23.57
2019-05-17T00:37:46.803Z,23.80
2019-05-17T00:40:16.601Z,24.63
2019-05-17T00:42:46.636Z,24.90
2019-05-17T00:45:17.596Z,23.40
2019-05-17T00:47:46.954Z,25.93
2019-05-17T00:50:16.979Z,26.45
2019-05-17T00:52:47.431Z,25.70
2019-05-17T00:55:17.544Z,23.98
2019-05-17T00:57:47.521Z,24.67
2019-05-17T01:00:17.601Z,23.73
2019-05-17T01:02:46.788Z,23.07
2019-05-17T01:05:17.138Z,26.10
2019-05-17T01:07:46.954Z,24.63
2019-05-17T01:10:16.942Z,26.57
2019-05-17T01:12:48.030Z,26.40
2019-05-17T01:15:17.429Z,24.63
2019-05-17T01:17:47.388Z,30.10
2019-05-17T01:20:17.385Z,35.83
2019-05-17T01:22:47.498Z,31.00
2019-05-17T01:25:17.106Z,37.78
2019-05-17T01:27:47.541Z,33.18
2019-05-17T01:30:17.477Z,37.78
2019-05-17T01:32:46.641Z,38.53
2019-05-17T01:35:16.707Z,44.23
2019-05-17T01:37:47.427Z,46.43
2019-05-17T01:40:17.638Z,47.73
2019-05-17T01:42:46.709Z,46.97
2019-05-17T01:45:16.636Z,41.33
2019-05-17T01:47:47.543Z,42.57
2019-05-17T01:50:17.489Z,39.47
2019-05-17T01:52:46.385Z,38.63
2019-05-17T01:55:17.371Z,35.52
2019-05-17T01:57:47.564Z,38.20
2019-05-17T02:00:17.457Z,38.67
2019-05-17T02:02:47.940Z,42.38
2019-05-17T02:05:17.412Z,43.20
2019-05-17T02:07:46.682Z,44.48
2019-05-17T02:10:16.725Z,41.33
2019-05-17T02:12:48.774Z,40.33
2019-05-17T02:15:16.645Z,43.93
2019-05-17T02:17:46.944Z,41.05
2019-05-17T02:20:17.121Z,42.88
2019-05-17T02:22:47.308Z,42.15
2019-05-17T02:25:16.837Z,37.93
2019-05-17T02:27:46.193Z,36.75
2019-05-17T02:30:15.399Z,36.77
2019-05-17T02:32:44.373Z,38.48
2019-05-17T02:35:14.596Z,38.57
2019-05-17T02:37:43.860Z,43.27
2019-05-17T02:40:14.800Z,51.20
2019-05-17T02:42:43.943Z,55.53
2019-05-17T02:45:14.354Z,51.63
2019-05-17T02:47:43.904Z,57.58
2019-05-17T02:50:14.338Z,61.13
2019-05-17T02:52:44.112Z,64.37
2019-05-17T02:55:13.779Z,61.77
2019-05-17T02:57:43.679Z,55.80
2019-05-17T03:00:13.893Z,56.10
2019-05-17T03:02:43.818Z,57.50
2019-05-17T03:05:14.067Z,59.95
2019-05-17T03:07:44.039Z,64.77
2019-05-17T03:10:24.121Z,66.40
2019-05-17T03:12:45.006Z,68.78
2019-05-17T03:15:14.030Z,69.90
2019-05-17T03:17:43.756Z,67.95
2019-05-17T03:20:13.872Z,72.23
2019-05-17T03:22:44.160Z,85.23
2019-05-17T03:25:13.991Z,79.67
2019-05-17T03:27:43.219Z,88.37
2019-05-17T03:30:17.087Z,82.83
2019-05-17T03:32:47.695Z,85.47
2019-05-17T03:35:16.431Z,86.03
2019-05-17T03:37:44.237Z,87.55
2019-05-17T03:40:24.831Z,87.47
2019-05-17T03:42:43.664Z,93.13
2019-05-17T03:45:13.890Z,86.53
2019-05-17T03:47:44.456Z,85.45
2019-05-17T03:50:14.165Z,93.03
2019-05-17T03:52:44.479Z,87.25
2019-05-17T03:55:13.928Z,87.85
2019-05-17T03:57:43.970Z,86.42
2019-05-17T04:00:13.794Z,83.65
2019-05-17T04:02:44.312Z,83.22
2019-05-17T04:05:13.017Z,79.03
2019-05-17T04:07:43.406Z,81.67
2019-05-17T04:10:14.961Z,93.30
2019-05-17T04:12:44.005Z,101.13
2019-05-17T04:15:13.755Z,95.20
2019-05-17T04:17:44.073Z,100.77
2019-05-17T04:20:13.668Z,104.70
2019-05-17T04:22:44.139Z,100.23
2019-05-17T04:25:13.652Z,97.25
2019-05-17T04:27:43.569Z,89.07
2019-05-17T04:30:12.875Z,81.87
2019-05-17T04:32:44.083Z,83.30
2019-05-17T04:35:13.118Z,77.30
2019-05-17T04:37:44.384Z,81.67
2019-05-17T04:40:14.097Z,78.85
2019-05-17T04:42:44.269Z,75.55
2019-05-17T04:45:13.784Z,78.15
2019-05-17T04:47:44.295Z,63.60
2019-05-17T04:50:13.950Z,65.10
2019-05-17T04:52:43.488Z,61.10
2019-05-17T04:55:13.635Z,54.10
2019-05-17T04:57:43.704Z,50.33
2019-05-17T05:00:13.495Z,54.35
2019-05-17T05:02:43.701Z,48.25
2019-05-17T05:05:13.629Z,50.33
2019-05-17T05:07:43.348Z,48.60
2019-05-17T05:10:13.805Z,42.98
2019-05-17T05:12:43.975Z,44.15
2019-05-17T05:15:13.498Z,43.50
2019-05-17T05:17:42.717Z,40.93
2019-05-17T05:20:13.229Z,39.37
2019-05-17T05:22:43.042Z,42.30
2019-05-17T05:25:12.984Z,42.00
2019-05-17T05:27:42.578Z,39.23
2019-05-17T05:30:12.185Z,38.20
2019-05-17T05:32:42.554Z,39.90
2019-05-17T05:35:12.305Z,38.55
2019-05-17T05:37:42.441Z,36.95
2019-05-17T05:40:12.971Z,38.67
2019-05-17T05:42:42.591Z,36.95
2019-05-17T05:45:12.316Z,37.50
2019-05-17T05:47:42.044Z,35.88
2019-05-17T05:50:12.518Z,32.43
2019-05-17T05:52:42.198Z,33.70
2019-05-17T05:55:12.466Z,32.90
2019-05-17T05:57:42.088Z,33.58
2019-05-17T06:00:13.081Z,30.07
2019-05-17T06:02:42.132Z,30.43
2019-05-17T06:05:14.652Z,31.25
2019-05-17T06:07:42.051Z,32.67
2019-05-17T06:10:12.962Z,31.77
2019-05-17T06:12:43.407Z,30.30
2019-05-17T06:15:12.581Z,30.00
2019-05-17T06:17:42.856Z,29.52
2019-05-17T06:20:12.717Z,28.00
2019-05-17T06:22:42.735Z,28.30
2019-05-17T06:25:14.993Z,25.12
2019-05-17T06:27:42.102Z,26.15
2019-05-17T06:30:12.609Z,27.07
2019-05-17T06:32:43.234Z,25.60
2019-05-17T06:35:12.728Z,24.20
2019-05-17T06:37:42.307Z,24.20
2019-05-17T06:40:13.086Z,28.05
2019-05-17T06:42:45.244Z,25.08
2019-05-17T06:45:12.802Z,24.73
2019-05-17T06:47:42.654Z,22.57
2019-05-17T06:50:14.415Z,21.70
2019-05-17T06:52:43.413Z,22.30
2019-05-17T06:55:13.141Z,24.23
2019-05-17T06:57:43.203Z,21.42
2019-05-17T07:00:19.699Z,21.17
2019-05-17T07:02:44.028Z,21.77
2019-05-17T07:05:14.280Z,21.47
2019-05-17T07:07:42.773Z,24.77
2019-05-17T07:10:11.973Z,21.73
2019-05-17T07:12:54.138Z,21.33
2019-05-17T07:15:11.040Z,21.60
2019-05-17T07:17:40.223Z,20.73
2019-05-17T07:20:10.298Z,20.92
2019-05-17T07:22:40.934Z,19.00
2019-05-17T07:25:11.429Z,18.83
2019-05-17T07:27:44.798Z,17.27
2019-05-17T07:30:10.823Z,19.40
2019-05-17T07:32:40.609Z,18.93
2019-05-17T07:35:11.001Z,18.30
2019-05-17T07:37:40.504Z,19.02
2019-05-17T07:40:11.090Z,19.42
2019-05-17T07:42:39.999Z,20.90
2019-05-17T07:45:10.169Z,17.33
2019-05-17T07:47:40.382Z,18.50
2019-05-17T07:50:11.253Z,18.50
2019-05-17T07:52:40.292Z,19.98
2019-05-17T07:55:10.885Z,19.40
2019-05-17T07:57:40.981Z,19.40
2019-05-17T08:00:10.540Z,18.85
2019-05-17T08:02:40.175Z,17.53
2019-05-17T08:05:10.102Z,18.12
2019-05-17T08:07:40.490Z,18.37
2019-05-17T08:10:10.974Z,19.25
2019-05-17T08:12:40.555Z,18.60
2019-05-17T08:15:11.192Z,18.07
2019-05-17T08:17:40.083Z,19.27
2019-05-17T08:20:10.484Z,18.30
2019-05-17T08:22:40.019Z,18.10
2019-05-17T08:25:10.140Z,17.00
2019-05-17T08:27:40.631Z,17.63
2019-05-17T08:30:10.722Z,17.25
2019-05-17T08:32:40.288Z,18.10
2019-05-17T08:35:11.375Z,16.87
2019-05-17T08:37:42.457Z,17.20
2019-05-17T08:40:11.124Z,16.50
2019-05-17T08:42:40.626Z,16.10
2019-05-17T08:45:10.123Z,14.90
2019-05-17T08:47:39.750Z,15.50
2019-05-17T08:50:11.188Z,15.33
2019-05-17T08:52:40.291Z,14.70
2019-05-17T08:55:10.067Z,14.40
2019-05-17T08:57:40.102Z,15.32
2019-05-17T09:00:10.540Z,13.83
2019-05-17T09:02:41.003Z,13.78
2019-05-17T09:05:10.191Z,14.23
2019-05-17T09:07:40.243Z,13.13
2019-05-17T09:10:09.978Z,13.23
2019-05-17T09:12:40.841Z,14.13
2019-05-17T09:15:10.270Z,13.45
2019-05-17T09:17:39.742Z,13.88
2019-05-17T09:20:10.775Z,14.50
2019-05-17T09:22:39.817Z,12.70
2019-05-17T09:25:12.269Z,13.80
2019-05-17T09:27:40.047Z,13.70
2019-05-17T09:30:10.957Z,13.35
2019-05-17T09:32:40.348Z,12.67
2019-05-17T09:35:10.089Z,13.03
2019-05-17T09:37:41.554Z,12.93
2019-05-17T09:40:10.623Z,12.27
2019-05-17T09:42:41.182Z,12.73
2019-05-17T09:45:10.435Z,12.73
2019-05-17T09:47:39.649Z,13.40
2019-05-17T09:50:10.142Z,12.90
2019-05-17T09:52:40.596Z,13.33
2019-05-17T09:55:09.856Z,14.38
2019-05-17T09:57:40.815Z,12.13
2019-05-17T10:00:10.611Z,12.40
2019-05-17T10:02:40.190Z,13.95
2019-05-17T10:05:10.602Z,13.70
2019-05-17T10:07:40.332Z,13.87
2019-05-17T10:10:10.700Z,13.32
2019-05-17T10:12:40.401Z,14.90
2019-05-17T10:15:10.449Z,15.13
2019-05-17T10:17:39.091Z,13.47
2019-05-17T10:20:10.849Z,12.65
2019-05-17T10:22:40.209Z,12.00
2019-05-17T10:25:09.868Z,13.00
2019-05-17T10:27:40.708Z,12.45
2019-05-17T10:30:10.436Z,13.03
2019-05-17T10:32:40.941Z,13.30
2019-05-17T10:35:10.316Z,14.40
2019-05-17T10:37:40.626Z,13.60
2019-05-17T10:40:10.707Z,12.60
2019-05-17T10:42:39.891Z,13.13
2019-05-17T10:45:11.032Z,14.00
2019-05-17T10:47:39.905Z,15.27
2019-05-17T10:50:10.791Z,12.90
2019-05-17T10:52:41.064Z,12.87
2019-05-17T10:55:10.914Z,13.50
2019-05-17T10:57:39.749Z,13.40
2019-05-17T11:00:10.294Z,12.20
2019-05-17T11:02:39.158Z,12.00
2019-05-17T11:05:10.341Z,12.40
2019-05-17T11:07:38.305Z,12.65
2019-05-17T11:10:11.249Z,11.47
2019-05-17T11:12:38.565Z,11.22
2019-05-17T11:15:11.369Z,11.97
2019-05-17T11:17:37.910Z,11.73
2019-05-17T11:20:07.385Z,11.77
2019-05-17T11:22:36.013Z,11.50
2019-05-17T11:25:07.697Z,11.20
2019-05-17T11:27:36.316Z,11.68
2019-05-17T11:30:07.088Z,9.90
2019-05-17T11:32:35.652Z,11.00
2019-05-17T11:35:05.267Z,9.85
2019-05-17T11:37:33.870Z,11.03
2019-05-17T11:40:02.497Z,10.90
2019-05-17T11:42:31.029Z,9.73
2019-05-17T11:44:59.496Z,9.73
2019-05-17T11:47:28.061Z,8.88
2019-05-17T11:49:56.600Z,8.70
2019-05-17T11:52:25.322Z,9.50
2019-05-17T11:54:53.806Z,9.00
2019-05-17T11:57:22.275Z,9.63
2019-05-17T11:59:50.741Z,9.90
2019-05-17T12:02:21.498Z,8.50
2019-05-17T12:04:49.510Z,8.33
2019-05-17T12:07:18.116Z,8.70
2019-05-17T12:09:46.673Z,8.10
2019-05-17T12:12:15.204Z,8.98
2019-05-17T12:14:43.663Z,8.57
2019-05-17T12:17:12.165Z,10.60
2019-05-17T12:19:40.764Z,8.90
2019-05-17T12:22:09.373Z,8.07
2019-05-17T12:24:37.868Z,8.00
2019-05-17T12:27:06.416Z,8.47
2019-05-17T12:29:35.232Z,7.53
2019-05-17T12:32:03.910Z,8.40
2019-05-17T12:34:32.615Z,8.00
2019-05-17T12:37:01.200Z,8.45
2019-05-17T12:39:29.740Z,9.08
2019-05-17T12:41:58.414Z,8.80
2019-05-17T12:44:26.981Z,8.50
2019-05-17T12:46:55.847Z,7.40
2019-05-17T12:49:24.436Z,7.80
2019-05-17T12:51:52.969Z,8.30
2019-05-17T12:54:21.447Z,7.30
2019-05-17T12:56:50.019Z,6.90
2019-05-17T12:59:18.616Z,8.05
2019-05-17T13:01:47.189Z,7.67
2019-05-17T13:04:15.799Z,6.90
2019-05-17T13:06:44.295Z,6.50
2019-05-17T13:09:13.086Z,8.47
2019-05-17T13:11:41.647Z,6.25
2019-05-17T13:14:10.123Z,10.30
2019-05-17T13:16:38.580Z,6.07
2019-05-17T13:19:07.075Z,6.60
2019-05-17T13:21:35.628Z,6.30
2019-05-17T13:24:04.259Z,6.20
2019-05-17T13:26:32.780Z,6.47
2019-05-17T13:29:01.613Z,5.67
2019-05-17T13:31:30.157Z,5.60
2019-05-17T13:33:58.652Z,5.40
2019-05-17T13:36:27.448Z,4.70
2019-05-17T13:38:55.940Z,4.90
2019-05-17T13:41:24.483Z,5.33
2019-05-17T13:43:53.089Z,4.90
2019-05-17T13:46:32.749Z,5.30
2019-05-17T13:48:51.848Z,4.80
2019-05-17T13:51:20.618Z,5.50
2019-05-17T13:53:49.119Z,5.00
2019-05-17T13:56:17.909Z,5.50
2019-05-17T13:58:46.447Z,6.15
2019-05-17T14:01:15.002Z,6.40
2019-05-17T14:03:43.572Z,5.80
2019-05-17T14:06:12.120Z,6.00
2019-05-17T14:08:40.695Z,6.00
2019-05-17T14:11:09.265Z,5.30
2019-05-17T14:13:37.830Z,6.43
2019-05-17T14:16:06.375Z,6.22
2019-05-17T14:18:34.945Z,5.30
2019-05-17T14:21:03.500Z,5.10
2019-05-17T14:23:31.996Z,5.63
2019-05-17T14:26:00.524Z,5.20
2019-05-17T14:28:29.083Z,6.35
2019-05-17T14:30:57.728Z,5.93
2019-05-17T14:33:26.265Z,6.60
2019-05-17T14:35:54.921Z,5.73
2019-05-17T14:38:23.531Z,4.40
2019-05-17T14:41:08.713Z,2.70
2019-05-17T14:43:22.366Z,2.50
2019-05-17T14:45:50.897Z,1.77
2019-05-17T14:48:19.460Z,1.90
2019-05-17T14:50:47.927Z,2.40
2019-05-17T14:53:16.497Z,2.00
2019-05-17T14:55:45.028Z,2.33
2019-05-17T14:58:13.586Z,1.80
2019-05-17T15:00:42.363Z,2.08
2019-05-17T15:03:11.069Z,1.70
2019-05-17T15:05:39.689Z,2.15
2019-05-17T15:08:08.319Z,1.80
2019-05-17T15:10:36.920Z,1.70
2019-05-17T15:13:05.476Z,1.90
2019-05-17T15:15:34.031Z,2.10
2019-05-17T15:18:02.496Z,3.60
2019-05-17T15:20:31.051Z,4.10
2019-05-17T15:22:59.554Z,4.55
2019-05-17T15:25:28.104Z,3.40
2019-05-17T15:27:56.704Z,3.10
2019-05-17T15:30:25.201Z,3.23
2019-05-17T15:32:54.072Z,2.80
2019-05-17T15:35:22.616Z,3.33
2019-05-17T15:37:51.153Z,3.95
2019-05-17T15:40:19.801Z,3.30
2019-05-17T15:42:49.453Z,2.87
2019-05-17T15:45:18.260Z,2.60
2019-05-17T15:47:46.723Z,2.60
2019-05-17T15:50:15.533Z,3.00
2019-05-17T15:52:44.117Z,3.00
2019-05-17T15:55:12.864Z,3.00
